»·PEaware :: N3572T KSMX-KBFL

N3572T :: KSMX-KBFL

FLIGHT INFORMATION

Flight Status: Arrived
Operator: Privately registered:
United States
More flights under this callsign
Pilot: Anthony D. (15361)
Aircraft: PIPER PA-28 CHEROKEE ARCHER
(PA28)
More flights by this aircraft type
Origin: KSMX Santa Maria Pub/Capt Hancock
United States
Destination: KBFL Meadows
United States
More flights between these airports :: More routes between these airports
Route: FLW
File this flight plan on PilotEdge
Remarks: CAT-05
Altitude:
(Current/Filed)
7,500ft
Speed:
(Current/Filed)
100kts
Departed: 10-Aug-18 11:19 AM
Arrived: 10-Aug-18 12:04 PM
Distance/Time
Traveled:
76nm/0:45
Distance/Time
To Go:
Arrived

Flight Plot

Page will automatically refresh every two minutes.


Map Options




Map Legend


Flown Route
Filed Route
Departure Airport
Arrival Airport
Navaid (VOR, NDB)
Fix

Horizontal Profiles

Position Reports

Time Latitude Longitude Heading Altitude Ground
Speed
10-Aug-18 10:52 34.896516 -120.445534 316 264ft 0kts
10-Aug-18 10:53 34.896516 -120.445534 316 264ft 0kts
10-Aug-18 10:54 34.896516 -120.445534 316 264ft 0kts
10-Aug-18 10:55 34.896516 -120.445534 316 264ft 0kts
10-Aug-18 10:56 34.896521 -120.445539 316 264ft 0kts
10-Aug-18 10:57 34.896526 -120.445546 316 264ft 0kts
10-Aug-18 10:58 34.896531 -120.445552 316 264ft 0kts
10-Aug-18 10:59 34.896537 -120.445558 316 264ft 0kts
10-Aug-18 11:00 34.896542 -120.445564 316 264ft 0kts
10-Aug-18 11:01 34.896547 -120.445570 316 264ft 0kts
10-Aug-18 11:02 34.896552 -120.445576 316 264ft 0kts
10-Aug-18 11:03 34.896558 -120.445582 316 264ft 0kts
10-Aug-18 11:04 34.896563 -120.445588 316 264ft 0kts
10-Aug-18 11:05 34.896568 -120.445594 316 264ft 0kts
10-Aug-18 11:06 34.896573 -120.445600 316 264ft 0kts
10-Aug-18 11:07 34.896578 -120.445606 316 264ft 0kts
10-Aug-18 11:08 34.896583 -120.445612 316 264ft 0kts
10-Aug-18 11:09 34.896589 -120.445618 316 264ft 0kts
10-Aug-18 11:10 34.896594 -120.445624 316 264ft 0kts
10-Aug-18 11:11 34.896599 -120.445629 316 264ft 0kts
10-Aug-18 11:12 34.896604 -120.445635 316 264ft 0kts
10-Aug-18 11:13 34.896629 -120.446026 224 264ft 7kts
10-Aug-18 11:14 34.896137 -120.447372 136 264ft 17kts
10-Aug-18 11:15 34.893423 -120.445264 181 264ft 0kts
10-Aug-18 11:16 34.893415 -120.445264 181 264ft 0kts
10-Aug-18 11:17 34.893409 -120.445264 181 264ft 0kts
10-Aug-18 11:18 34.893403 -120.445264 181 264ft 0kts
10-Aug-18 11:19 34.893580 -120.446776 314 264ft 26kts
10-Aug-18 11:20 34.909044 -120.463058 325 896ft 91kts
10-Aug-18 11:21 34.929324 -120.461844 67 2000ft 96kts
10-Aug-18 11:22 34.929573 -120.429543 82 3030ft 91kts
10-Aug-18 11:23 34.936412 -120.398749 58 4101ft 96kts
10-Aug-18 11:24 34.945404 -120.368113 66 5235ft 98kts
10-Aug-18 11:25 34.951584 -120.335607 68 5981ft 99kts
10-Aug-18 11:26 34.960722 -120.303855 69 6803ft 99kts
10-Aug-18 11:27 34.968642 -120.271510 73 7424ft 99kts
10-Aug-18 11:28 34.977175 -120.234717 72 7489ft 121kts
10-Aug-18 11:29 34.985986 -120.197176 72 7495ft 114kts
10-Aug-18 11:30 34.997316 -120.159387 66 7507ft 120kts
10-Aug-18 11:31 35.009533 -120.121184 66 7498ft 120kts
10-Aug-18 11:32 35.021754 -120.082973 66 7494ft 120kts
10-Aug-18 11:33 35.034067 -120.044889 66 7494ft 120kts
10-Aug-18 11:34 35.046421 -120.006696 66 7492ft 121kts
10-Aug-18 11:35 35.058602 -119.969328 66 7486ft 117kts
10-Aug-18 11:36 35.070822 -119.931975 66 7488ft 119kts
10-Aug-18 11:37 35.083798 -119.894324 61 7481ft 120kts
10-Aug-18 11:38 35.099078 -119.861794 58 7467ft 106kts
10-Aug-18 11:39 35.115370 -119.827443 58 7505ft 121kts
10-Aug-18 11:40 35.132434 -119.791850 57 7526ft 122kts
10-Aug-18 11:41 35.148752 -119.757791 57 7519ft 114kts
10-Aug-18 11:42 35.163340 -119.723902 61 7536ft 111kts
10-Aug-18 11:43 35.176409 -119.686873 67 7565ft 122kts
10-Aug-18 11:44 35.188457 -119.647831 67 7557ft 122kts
10-Aug-18 11:45 35.200197 -119.611531 63 7540ft 111kts
10-Aug-18 11:46 35.215749 -119.577924 57 7548ft 114kts
10-Aug-18 11:47 35.231469 -119.545211 62 7534ft 110kts
10-Aug-18 11:48 35.245353 -119.510273 62 7546ft 116kts
10-Aug-18 11:49 35.259576 -119.474844 61 7545ft 116kts
10-Aug-18 11:50 35.273679 -119.440436 61 6941ft 119kts
10-Aug-18 11:51 35.288820 -119.403910 61 6069ft 113kts
10-Aug-18 11:52 35.302793 -119.370305 61 5746ft 110kts
10-Aug-18 11:53 35.316634 -119.337240 61 5388ft 108kts
10-Aug-18 11:54 35.330596 -119.304688 61 5320ft 107kts
10-Aug-18 11:55 35.343461 -119.274698 61 5187ft 108kts
10-Aug-18 11:56 35.357080 -119.241406 63 4751ft 108kts
10-Aug-18 11:57 35.370585 -119.208499 63 3971ft 105kts
10-Aug-18 11:58 35.381725 -119.175965 95 2427ft 114kts
10-Aug-18 11:59 35.370800 -119.141944 120 1771ft 104kts
10-Aug-18 12:00 35.366701 -119.106098 74 1349ft 107kts
10-Aug-18 12:01 35.380071 -119.075326 60 1469ft 101kts
10-Aug-18 12:02 35.393074 -119.043465 66 1440ft 105kts
10-Aug-18 12:03 35.414406 -119.032762 326 880ft 86kts
10-Aug-18 12:04 35.430673 -119.052389 312 539ft 56kts
10-Aug-18 12:05 35.436090 -119.057942 23 510ft 9kts
10-Aug-18 12:06 35.435046 -119.055410 135 510ft 19kts
10-Aug-18 12:07 35.435070 -119.053481 206 510ft 0kts
10-Aug-18 12:08 35.435069 -119.053482 206 510ft 0kts

Navigation Log

Ident Type
Flight plan parsing failed, navigation log unavailable